createdAt,value
2018-06-12T00:00:50.581Z,99.90
2018-06-12T00:03:19.830Z,99.90
2018-06-12T00:05:49.144Z,99.90
2018-06-12T00:08:18.424Z,99.90
2018-06-12T00:10:47.654Z,99.90
2018-06-12T00:13:16.884Z,99.90
2018-06-12T00:15:46.084Z,99.90
2018-06-12T00:18:15.340Z,99.90
2018-06-12T00:20:44.564Z,99.90
2018-06-12T00:23:13.784Z,99.90
2018-06-12T00:25:43.039Z,99.90
2018-06-12T00:28:12.290Z,99.90
2018-06-12T00:30:41.616Z,99.90
2018-06-12T00:33:10.883Z,99.90
2018-06-12T00:35:40.112Z,99.90
2018-06-12T00:38:09.323Z,99.90
2018-06-12T00:40:38.647Z,99.90
2018-06-12T00:43:07.926Z,99.90
2018-06-12T00:45:37.151Z,99.90
2018-06-12T00:48:06.379Z,99.90
2018-06-12T00:50:35.591Z,99.90
2018-06-12T00:53:04.853Z,99.90
2018-06-12T00:55:34.055Z,99.90
2018-06-12T00:58:03.278Z,99.90
2018-06-12T01:00:32.548Z,99.90
2018-06-12T01:03:01.796Z,99.90
2018-06-12T01:05:31.031Z,99.90
2018-06-12T01:08:00.264Z,99.90
2018-06-12T01:10:29.504Z,99.90
2018-06-12T01:12:58.740Z,99.90
2018-06-12T01:15:28.012Z,99.90
2018-06-12T01:17:57.302Z,99.90
2018-06-12T01:20:26.559Z,99.90
2018-06-12T01:22:55.800Z,99.90
2018-06-12T01:25:25.028Z,99.90
2018-06-12T01:27:54.250Z,99.90
2018-06-12T01:30:23.504Z,99.90
2018-06-12T01:32:52.859Z,99.90
2018-06-12T01:37:50.887Z,99.90
2018-06-12T01:40:20.142Z,99.90
2018-06-12T01:47:46.987Z,99.90
2018-06-12T01:50:16.254Z,99.90
2018-06-12T01:52:46.174Z,99.90
2018-06-12T01:55:15.371Z,99.90
2018-06-12T01:57:44.579Z,99.90
2018-06-12T02:00:13.776Z,99.90
2018-06-12T02:02:42.998Z,99.90
2018-06-12T02:05:12.268Z,99.90
2018-06-12T02:07:41.479Z,99.90
2018-06-12T02:10:10.707Z,99.90
2018-06-12T02:15:08.690Z,99.90
2018-06-12T02:17:37.936Z,99.50
2018-06-12T02:20:07.238Z,99.20
2018-06-12T02:22:36.588Z,99.90
2018-06-12T02:25:06.270Z,99.90
2018-06-12T02:27:35.492Z,99.90
2018-06-12T02:30:04.919Z,99.90
2018-06-12T02:32:34.165Z,99.90
2018-06-12T02:35:03.370Z,99.90
2018-06-12T02:37:32.664Z,99.90
2018-06-12T02:40:01.978Z,99.90
2018-06-12T02:42:31.302Z,99.90
2018-06-12T02:45:00.548Z,99.90
2018-06-12T02:47:29.756Z,99.90
2018-06-12T02:49:59.046Z,99.90
2018-06-12T02:52:28.290Z,99.90
2018-06-12T02:54:57.548Z,99.90
2018-06-12T02:57:26.750Z,99.90
2018-06-12T02:59:56.021Z,99.90
2018-06-12T03:02:25.277Z,99.90
2018-06-12T03:04:54.507Z,99.90
2018-06-12T03:07:23.766Z,99.90
2018-06-12T03:12:21.791Z,99.90
2018-06-12T03:14:51.022Z,99.90
2018-06-12T03:17:20.321Z,99.90
2018-06-12T03:19:49.563Z,99.90
2018-06-12T03:22:18.768Z,99.80
2018-06-12T03:24:48.077Z,99.90
2018-06-12T03:27:17.348Z,99.90
2018-06-12T03:29:46.602Z,99.60
2018-06-12T03:32:15.817Z,99.80
2018-06-12T03:34:45.061Z,99.60
2018-06-12T03:37:14.254Z,99.20
2018-06-12T03:39:43.485Z,99.10
2018-06-12T03:42:12.763Z,99.20
2018-06-12T03:44:42.011Z,99.80
2018-06-12T03:47:11.267Z,99.10
2018-06-12T03:49:40.452Z,99.20
2018-06-12T03:52:12.701Z,98.80
2018-06-12T03:54:41.959Z,98.20
2018-06-12T03:57:11.203Z,98.30
2018-06-12T04:02:09.183Z,98.10
2018-06-12T04:04:38.413Z,97.80
2018-06-12T04:07:07.722Z,97.80
2018-06-12T04:09:37.000Z,97.90
2018-06-12T04:12:06.299Z,97.80
2018-06-12T04:14:35.594Z,98.80
2018-06-12T04:17:04.852Z,97.80
2018-06-12T04:19:34.095Z,97.80
2018-06-12T04:22:03.375Z,97.70
2018-06-12T04:24:32.673Z,96.80
2018-06-12T04:27:01.911Z,97.50
2018-06-12T04:29:31.137Z,96.90
2018-06-12T04:32:00.345Z,97.70
2018-06-12T04:34:29.562Z,98.60
2018-06-12T04:36:58.774Z,98.70
2018-06-12T04:39:28.078Z,99.00
2018-06-12T04:41:57.351Z,99.70
2018-06-12T04:44:26.601Z,99.60
2018-06-12T04:46:55.855Z,99.90
2018-06-12T04:49:25.093Z,99.60
2018-06-12T04:51:54.358Z,99.60
2018-06-12T04:54:23.634Z,99.30
2018-06-12T04:56:52.963Z,99.50
2018-06-12T04:59:22.198Z,99.10
2018-06-12T05:01:58.132Z,99.20
2018-06-12T05:04:27.412Z,98.90
2018-06-12T05:06:56.626Z,98.50
2018-06-12T05:09:25.881Z,98.70
2018-06-12T05:11:55.107Z,99.50
2018-06-12T05:14:24.421Z,99.80
2018-06-12T05:16:53.625Z,99.90
2018-06-12T05:19:22.919Z,99.00
2018-06-12T05:21:52.203Z,98.50
2018-06-12T05:24:21.472Z,99.30
2018-06-12T05:26:50.690Z,98.50
2018-06-12T05:29:19.958Z,99.00
2018-06-12T05:31:49.228Z,97.90
2018-06-12T05:34:18.540Z,97.80
2018-06-12T05:36:47.816Z,97.00
2018-06-12T05:39:17.023Z,97.00
2018-06-12T05:41:46.297Z,96.90
2018-06-12T05:44:15.515Z,96.40
2018-06-12T05:46:44.854Z,96.80
2018-06-12T05:49:14.022Z,97.30
2018-06-12T05:51:43.278Z,95.70
2018-06-12T05:54:12.589Z,97.00
2018-06-12T05:56:41.902Z,96.10
2018-06-12T05:59:11.144Z,95.50
2018-06-12T06:01:40.410Z,95.80
2018-06-12T06:04:09.666Z,96.20
2018-06-12T06:06:39.515Z,95.70
2018-06-12T06:09:09.079Z,94.50
2018-06-12T06:11:38.321Z,94.20
2018-06-12T06:14:07.557Z,94.00
2018-06-12T06:16:36.823Z,95.20
2018-06-12T06:19:06.068Z,95.10
2018-06-12T06:21:35.320Z,95.80
2018-06-12T06:24:04.617Z,94.40
2018-06-12T06:26:33.891Z,93.80
2018-06-12T06:29:03.194Z,94.20
2018-06-12T06:31:46.879Z,94.50
2018-06-12T06:34:22.689Z,93.80
2018-06-12T06:36:51.894Z,94.30
2018-06-12T06:39:21.243Z,93.20
2018-06-12T06:41:50.499Z,93.00
2018-06-12T06:44:19.714Z,93.30
2018-06-12T06:46:48.977Z,93.10
2018-06-12T06:49:18.207Z,92.40
2018-06-12T06:51:47.461Z,93.20
2018-06-12T06:54:16.696Z,92.10
2018-06-12T06:56:45.892Z,91.80
2018-06-12T06:59:15.082Z,92.20
2018-06-12T07:01:44.331Z,91.90
2018-06-12T07:04:13.555Z,92.20
2018-06-12T07:06:42.821Z,92.10
2018-06-12T07:09:12.088Z,91.60
2018-06-12T07:11:41.379Z,91.30
2018-06-12T07:14:10.670Z,91.50
2018-06-12T07:16:39.944Z,90.10
2018-06-12T07:19:09.155Z,89.70
2018-06-12T07:21:38.409Z,88.70
2018-06-12T07:24:07.643Z,89.90
2018-06-12T07:26:36.871Z,89.90
2018-06-12T07:29:06.183Z,87.00
2018-06-12T07:31:35.419Z,89.70
2018-06-12T07:34:04.732Z,89.10
2018-06-12T07:36:34.095Z,86.50
2018-06-12T07:39:03.943Z,86.40
2018-06-12T07:41:33.173Z,85.20
2018-06-12T07:44:02.437Z,86.30
2018-06-12T07:49:00.465Z,85.40
2018-06-12T07:51:29.687Z,86.90
2018-06-12T07:53:58.926Z,87.00
2018-06-12T07:56:28.170Z,88.90
2018-06-12T07:58:57.395Z,86.70
2018-06-12T08:01:26.622Z,86.40
2018-06-12T08:03:55.942Z,85.90
2018-06-12T08:06:25.183Z,89.00
2018-06-12T08:08:54.453Z,86.70
2018-06-12T08:11:23.689Z,86.00
2018-06-12T08:13:52.931Z,86.40
2018-06-12T08:16:22.184Z,85.90
2018-06-12T08:18:51.423Z,84.60
2018-06-12T08:21:20.672Z,84.50
2018-06-12T08:23:49.993Z,83.70
2018-06-12T08:26:19.229Z,82.90
2018-06-12T08:28:48.476Z,83.40
2018-06-12T08:31:17.710Z,82.20
2018-06-12T08:33:46.944Z,85.20
2018-06-12T08:36:16.189Z,83.10
2018-06-12T08:38:45.478Z,80.20
2018-06-12T08:41:14.747Z,80.50
2018-06-12T08:43:44.077Z,81.80
2018-06-12T08:46:13.336Z,79.20
2018-06-12T08:48:42.589Z,78.30
2018-06-12T08:51:11.870Z,80.60
2018-06-12T08:56:09.879Z,80.30
2018-06-12T08:58:39.122Z,76.90
2018-06-12T09:01:09.190Z,76.30
2018-06-12T09:03:38.512Z,76.60
2018-06-12T09:06:07.739Z,76.60
2018-06-12T09:08:36.958Z,76.00
2018-06-12T09:13:34.994Z,79.80
2018-06-12T09:16:04.255Z,78.40
2018-06-12T09:18:33.522Z,76.90
2018-06-12T09:21:02.796Z,77.80
2018-06-12T09:23:32.045Z,78.30
2018-06-12T09:26:01.358Z,78.60
2018-06-12T09:28:30.675Z,77.40
2018-06-12T09:30:59.869Z,77.60
2018-06-12T09:33:29.108Z,78.20
2018-06-12T09:36:03.650Z,76.00
2018-06-12T09:38:32.886Z,77.80
2018-06-12T09:43:30.983Z,76.90
2018-06-12T09:46:00.216Z,75.20
2018-06-12T09:48:29.445Z,76.10
2018-06-12T09:50:58.748Z,75.80
2018-06-12T09:53:30.892Z,75.70
2018-06-12T09:56:00.131Z,75.80
2018-06-12T09:58:29.340Z,75.80
2018-06-12T10:01:03.748Z,73.70
2018-06-12T10:03:32.986Z,76.60
2018-06-12T10:06:02.243Z,74.60
2018-06-12T10:08:31.459Z,76.50
2018-06-12T10:11:00.711Z,76.60
2018-06-12T10:13:30.179Z,72.40
2018-06-12T10:15:59.433Z,75.70
2018-06-12T10:18:28.678Z,78.30
2018-06-12T10:20:57.925Z,74.30
2018-06-12T10:23:27.145Z,76.40
2018-06-12T10:25:56.403Z,75.90
2018-06-12T10:28:25.619Z,76.20
2018-06-12T10:30:54.855Z,78.20
2018-06-12T10:33:24.086Z,79.00
2018-06-12T10:35:53.435Z,80.10
2018-06-12T10:38:22.679Z,78.80
2018-06-12T10:40:51.943Z,81.30
2018-06-12T10:43:21.168Z,82.10
2018-06-12T10:45:50.411Z,83.50
2018-06-12T10:48:19.653Z,82.00
2018-06-12T10:50:48.886Z,88.80
2018-06-12T10:53:18.157Z,83.90
2018-06-12T10:55:47.433Z,81.60
2018-06-12T10:58:16.663Z,82.10
2018-06-12T11:00:45.952Z,85.70
2018-06-12T11:03:15.290Z,83.70
2018-06-12T11:05:44.518Z,85.50
2018-06-12T11:08:13.751Z,85.10
2018-06-12T11:10:43.049Z,86.00
2018-06-12T11:13:12.271Z,84.50
2018-06-12T11:15:41.531Z,81.50
2018-06-12T11:18:10.808Z,83.00
2018-06-12T11:20:40.089Z,81.00
2018-06-12T11:23:09.312Z,77.40
2018-06-12T11:25:38.604Z,80.50
2018-06-12T11:28:07.902Z,78.10
2018-06-12T11:30:37.300Z,77.10
2018-06-12T11:33:06.676Z,79.50
2018-06-12T11:35:35.831Z,80.80
2018-06-12T11:38:05.178Z,71.40
2018-06-12T11:40:34.420Z,74.10
2018-06-12T11:43:03.726Z,72.10
2018-06-12T11:45:33.020Z,72.80
2018-06-12T11:48:02.275Z,71.50
2018-06-12T11:50:31.499Z,70.40
2018-06-12T11:53:00.780Z,73.00
2018-06-12T11:55:30.016Z,75.70
2018-06-12T11:57:59.267Z,75.60
2018-06-12T12:00:28.526Z,74.60
2018-06-12T12:02:57.793Z,80.10
2018-06-12T12:05:27.051Z,75.60
2018-06-12T12:07:56.342Z,75.60
2018-06-12T12:10:25.590Z,75.20
2018-06-12T12:12:54.855Z,74.10
2018-06-12T12:15:24.147Z,72.80
2018-06-12T12:17:53.355Z,74.60
2018-06-12T12:20:22.578Z,75.50
2018-06-12T12:22:51.972Z,73.40
2018-06-12T12:25:21.246Z,75.70
2018-06-12T12:27:50.531Z,74.30
2018-06-12T12:30:19.855Z,73.90
2018-06-12T12:32:49.157Z,73.90
2018-06-12T12:35:18.432Z,73.50
2018-06-12T12:37:47.671Z,72.70
2018-06-12T12:40:16.907Z,71.80
2018-06-12T12:42:46.164Z,69.50
2018-06-12T12:45:15.494Z,71.30
2018-06-12T12:47:44.743Z,67.80
2018-06-12T12:50:14.027Z,66.80
2018-06-12T12:52:43.267Z,68.90
2018-06-12T12:55:12.545Z,68.80
2018-06-12T13:00:10.637Z,69.10
2018-06-12T13:02:39.922Z,70.30
2018-06-12T13:05:09.182Z,69.40
2018-06-12T13:07:38.416Z,70.40
2018-06-12T13:10:07.671Z,72.60
2018-06-12T13:12:36.891Z,70.90
2018-06-12T13:15:06.387Z,70.10
2018-06-12T13:17:35.622Z,71.40
2018-06-12T13:22:33.620Z,70.60
2018-06-12T13:25:02.891Z,68.00
2018-06-12T13:27:32.161Z,68.90
2018-06-12T13:30:01.361Z,68.10
2018-06-12T13:32:30.620Z,66.30
2018-06-12T13:34:59.886Z,67.10
2018-06-12T13:37:29.232Z,69.20
2018-06-12T13:39:58.536Z,68.70
2018-06-12T13:42:27.854Z,71.70
2018-06-12T13:44:57.089Z,72.30
2018-06-12T13:47:26.367Z,73.60
2018-06-12T13:50:02.181Z,71.80
2018-06-12T13:52:31.458Z,75.40
2018-06-12T13:55:00.678Z,77.90
2018-06-12T13:57:30.191Z,79.60
2018-06-12T13:59:59.438Z,80.00
2018-06-12T14:02:28.692Z,81.30
2018-06-12T14:04:57.919Z,80.30
2018-06-12T14:07:27.165Z,79.80
2018-06-12T14:09:56.428Z,79.10
2018-06-12T14:12:25.664Z,80.70
2018-06-12T14:14:54.951Z,79.40
2018-06-12T14:17:24.296Z,79.50
2018-06-12T14:19:53.617Z,79.10
2018-06-12T14:22:22.827Z,78.60
2018-06-12T14:27:20.890Z,78.40
2018-06-12T14:29:50.112Z,77.40
2018-06-12T14:32:19.496Z,77.60
2018-06-12T14:34:48.826Z,76.70
2018-06-12T14:37:18.088Z,76.20
2018-06-12T14:39:47.380Z,75.70
2018-06-12T14:42:16.685Z,76.30
2018-06-12T14:44:45.919Z,77.70
2018-06-12T14:47:15.183Z,76.60
2018-06-12T14:49:44.587Z,76.70
2018-06-12T14:52:13.841Z,78.60
2018-06-12T14:54:43.167Z,80.30
2018-06-12T14:57:12.458Z,82.40
2018-06-12T14:59:41.749Z,87.30
2018-06-12T15:02:10.983Z,90.00
2018-06-12T15:04:40.241Z,90.70
2018-06-12T15:07:09.500Z,91.20
2018-06-12T15:09:38.743Z,91.80
2018-06-12T15:12:07.992Z,91.70
2018-06-12T15:17:06.050Z,91.50
2018-06-12T15:19:35.383Z,91.90
2018-06-12T15:24:33.744Z,93.10
2018-06-12T15:27:03.000Z,93.20
2018-06-12T15:29:34.866Z,93.00
2018-06-12T15:32:04.167Z,92.50
2018-06-12T15:34:33.445Z,92.30
2018-06-12T15:37:02.727Z,92.60
2018-06-12T15:44:29.563Z,92.10
2018-06-12T15:46:58.887Z,91.50
2018-06-12T15:49:28.175Z,92.00
2018-06-12T15:51:57.474Z,91.70
2018-06-12T15:54:26.746Z,92.00
2018-06-12T15:56:56.012Z,92.00
2018-06-12T15:59:25.263Z,92.50
2018-06-12T16:01:54.531Z,92.20
2018-06-12T16:04:23.794Z,93.00
2018-06-12T16:09:21.824Z,93.20
2018-06-12T16:11:51.109Z,94.20
2018-06-12T16:14:20.415Z,93.80
2018-06-12T16:16:49.689Z,93.50
2018-06-12T16:19:18.927Z,94.70
2018-06-12T16:21:48.160Z,94.60
2018-06-12T16:24:17.418Z,95.50
2018-06-12T16:26:46.669Z,95.10
2018-06-12T16:29:15.907Z,95.80
2018-06-12T16:31:45.151Z,96.10
2018-06-12T16:34:14.399Z,96.30
2018-06-12T16:36:43.684Z,96.30
2018-06-12T16:39:12.961Z,97.20
2018-06-12T16:41:42.231Z,97.30
2018-06-12T16:44:11.523Z,97.30
2018-06-12T16:46:40.767Z,97.60
2018-06-12T16:49:10.078Z,96.70
2018-06-12T16:51:39.328Z,97.10
2018-06-12T16:54:08.693Z,95.50
2018-06-12T16:56:38.050Z,96.40
2018-06-12T16:59:07.314Z,94.70
2018-06-12T17:01:36.624Z,93.80
2018-06-12T17:04:06.068Z,94.60
2018-06-12T17:06:35.343Z,94.30
2018-06-12T17:09:06.912Z,95.30
2018-06-12T17:11:36.195Z,94.60
2018-06-12T17:14:06.440Z,94.50
2018-06-12T17:16:35.694Z,95.10
2018-06-12T17:19:05.084Z,94.20
2018-06-12T17:21:34.472Z,93.60
2018-06-12T17:24:03.770Z,93.80
2018-06-12T17:26:33.153Z,93.70
2018-06-12T17:29:02.609Z,94.20
2018-06-12T17:31:32.271Z,94.40
2018-06-12T17:34:01.531Z,93.80
2018-06-12T17:36:30.844Z,93.80
2018-06-12T17:39:00.116Z,94.40
2018-06-12T17:41:29.471Z,94.10
2018-06-12T17:43:58.822Z,93.90
2018-06-12T17:46:28.083Z,94.20
2018-06-12T17:48:57.423Z,93.10
2018-06-12T17:51:26.806Z,93.30
2018-06-12T17:53:56.045Z,92.70
2018-06-12T17:56:25.318Z,93.40
2018-06-12T17:58:54.559Z,93.10
2018-06-12T18:01:23.928Z,93.50
2018-06-12T18:06:22.128Z,93.20
2018-06-12T18:11:20.218Z,92.90
2018-06-12T18:13:49.611Z,92.70
2018-06-12T18:16:18.947Z,91.50
2018-06-12T18:18:48.300Z,92.20
2018-06-12T18:21:17.619Z,91.20
2018-06-12T18:23:52.454Z,92.10
2018-06-12T18:26:21.969Z,93.00
2018-06-12T18:28:51.275Z,91.90
2018-06-12T18:31:20.728Z,92.30
2018-06-12T18:33:50.097Z,91.30
2018-06-12T18:36:19.482Z,92.30
2018-06-12T18:38:48.838Z,91.60
2018-06-12T18:41:18.191Z,91.90
2018-06-12T18:43:47.585Z,91.50
2018-06-12T18:46:16.892Z,91.40
2018-06-12T18:48:46.281Z,91.10
2018-06-12T18:51:15.651Z,91.60
2018-06-12T18:53:44.976Z,91.30
2018-06-12T18:56:14.348Z,91.80
2018-06-12T18:58:43.753Z,91.30
2018-06-12T19:01:12.979Z,91.80
2018-06-12T19:03:42.915Z,91.10
2018-06-12T19:06:12.239Z,91.70
2018-06-12T19:08:41.555Z,91.40
2018-06-12T19:11:10.904Z,91.40
2018-06-12T19:13:40.233Z,92.20
2018-06-12T19:16:09.473Z,92.20
2018-06-12T19:18:38.819Z,91.60
2018-06-12T19:21:08.134Z,92.00
2018-06-12T19:23:37.474Z,92.00
2018-06-12T19:26:06.892Z,91.80
2018-06-12T19:28:36.212Z,91.90
2018-06-12T19:31:05.589Z,92.90
2018-06-12T19:33:35.609Z,92.50
2018-06-12T19:36:05.072Z,93.50
2018-06-12T19:38:34.420Z,93.80
2018-06-12T19:41:03.782Z,94.50
2018-06-12T19:43:33.119Z,95.00
2018-06-12T19:46:02.450Z,94.50
2018-06-12T19:48:31.845Z,94.80
2018-06-12T19:51:01.204Z,94.50
2018-06-12T19:53:30.539Z,93.70
2018-06-12T19:55:59.865Z,94.50
2018-06-12T19:58:29.215Z,94.40
2018-06-12T20:00:58.529Z,93.90
2018-06-12T20:03:27.827Z,94.10
2018-06-12T20:05:57.176Z,93.50
2018-06-12T20:08:26.528Z,91.90
2018-06-12T20:10:55.942Z,94.00
2018-06-12T20:13:25.375Z,93.90
2018-06-12T20:15:54.612Z,92.30
2018-06-12T20:18:23.878Z,92.50
2018-06-12T20:20:53.215Z,93.00
2018-06-12T20:23:22.615Z,93.50
2018-06-12T20:25:51.947Z,94.10
2018-06-12T20:28:21.337Z,94.40
2018-06-12T20:30:50.787Z,94.50
2018-06-12T20:33:21.614Z,94.60
2018-06-12T20:35:50.923Z,94.80
2018-06-12T20:38:20.233Z,94.90
2018-06-12T20:40:49.708Z,94.90
2018-06-12T20:43:19.083Z,95.00
2018-06-12T20:45:48.332Z,94.90
2018-06-12T20:48:17.611Z,94.80
2018-06-12T20:50:47.003Z,94.90
2018-06-12T20:53:16.277Z,94.90
2018-06-12T20:55:45.818Z,94.80
2018-06-12T20:58:15.131Z,94.80
2018-06-12T21:00:44.420Z,94.90
2018-06-12T21:03:13.715Z,94.90
2018-06-12T21:05:43.178Z,95.10
2018-06-12T21:08:13.276Z,95.00
2018-06-12T21:10:42.564Z,95.10
2018-06-12T21:13:11.849Z,95.30
2018-06-12T21:15:41.230Z,95.40
2018-06-12T21:18:10.530Z,95.30
2018-06-12T21:20:40.127Z,95.40
2018-06-12T21:23:09.497Z,95.50
2018-06-12T21:25:38.864Z,95.70
2018-06-12T21:28:08.199Z,95.90
2018-06-12T21:30:37.560Z,95.70
2018-06-12T21:33:06.831Z,96.00
2018-06-12T21:35:36.187Z,95.50
2018-06-12T21:38:06.354Z,95.90
2018-06-12T21:40:35.653Z,95.80
2018-06-12T21:43:05.021Z,95.70
2018-06-12T21:45:34.294Z,95.60
2018-06-12T21:48:03.592Z,95.80
2018-06-12T21:50:32.858Z,96.10
2018-06-12T21:53:02.155Z,96.20
2018-06-12T21:55:31.432Z,96.10
2018-06-12T21:58:00.700Z,96.40
2018-06-12T22:00:32.999Z,96.40
2018-06-12T22:03:02.418Z,96.40
2018-06-12T22:05:31.671Z,96.60
2018-06-12T22:08:00.915Z,96.30
2018-06-12T22:10:30.207Z,96.10
2018-06-12T22:12:59.680Z,95.20
2018-06-12T22:15:28.921Z,94.10
2018-06-12T22:17:58.167Z,93.50
2018-06-12T22:20:27.432Z,92.70
2018-06-12T22:22:56.655Z,92.60
2018-06-12T22:25:25.880Z,92.90
2018-06-12T22:27:55.151Z,93.40
2018-06-12T22:30:24.423Z,94.30
2018-06-12T22:32:53.660Z,94.20
2018-06-12T22:35:22.911Z,94.00
2018-06-12T22:37:52.295Z,93.40
2018-06-12T22:40:21.475Z,93.70
2018-06-12T22:42:50.708Z,93.40
2018-06-12T22:45:19.948Z,93.40
2018-06-12T22:47:49.228Z,92.20
2018-06-12T22:50:18.455Z,91.60
2018-06-12T22:52:47.687Z,92.00
2018-06-12T22:55:16.931Z,91.50
2018-06-12T22:57:46.231Z,91.70
2018-06-12T23:00:19.935Z,91.90
2018-06-12T23:05:17.978Z,92.40
2018-06-12T23:07:47.230Z,91.50
2018-06-12T23:10:16.484Z,91.00
2018-06-12T23:12:45.679Z,91.30
2018-06-12T23:15:14.979Z,91.60
2018-06-12T23:17:44.172Z,91.40
2018-06-12T23:20:24.794Z,91.40
2018-06-12T23:22:54.047Z,91.50
2018-06-12T23:25:23.368Z,91.20
2018-06-12T23:27:52.627Z,91.30
2018-06-12T23:30:21.858Z,91.50
2018-06-12T23:35:19.937Z,91.20
2018-06-12T23:37:49.177Z,91.20
2018-06-12T23:40:18.371Z,91.10
2018-06-12T23:42:47.561Z,91.20
2018-06-12T23:45:16.807Z,91.20
2018-06-12T23:47:46.003Z,91.30
2018-06-12T23:50:15.275Z,91.10
2018-06-12T23:52:44.514Z,91.00
2018-06-12T23:55:13.739Z,91.30
2018-06-12T23:57:43.020Z,91.10
